Univ Nv las Vegas, Nevada
Current Conditions -  °F | °C
As of 9:56 AM on Saturday 20 Dec 2014 (Local Time) from KLAS Reporting Station
Overcast Overcast  
Wind Chill: 50°   Ceiling: 20000
Heat Index: 50°   Visibility: 10mi
Dew Point: 37°   Wind: 3mph
Humidity: 61%   Direction: 180°S
Pressure: 30.16"   Gusts: NA
Location:  36.0857°N, 115.147°W
Report Text: KLAS 201756Z 18003KT 10SM FEW140 OVC200 10/03 A3016 RMK AO2 SLP212 T01000028 10100 20050 51015
Loading
Personal Weather Stations






























Interactive Weather Map New forecast layout! Learn more

10-Day Weather Forecast

Advertisements
Track Severe Weather on mobile